Time;durP1;ratioP1;P1;durP2;ratioP2;P2;SDS_P1;SDS_P2;PMS_P1;PMS_P2;Temp;Humidity;BMP_temperature;BMP_pressure;BME280_temperature;BME280_humidity;BME280_pressure;Samples;Min_cycle;Max_cycle;Signal;HPM_P1;HPM_P2
2022/08/28 00:00:36;;;;;;;;;;;;;;;;;;4786931;29;19991;-43
2022/08/28 00:03:03;;;;;;;;;;;;;;;;;;4788411;29;19959;-46
2022/08/28 00:05:31;;;;;;;;;;;;;;;;;;4790304;29;19959;-44
2022/08/28 00:07:59;;;;;;;;;;;;;;;;;;4790713;30;19975;-47
2022/08/28 00:10:26;;;;;;;;;;;;;;;;;;4790848;29;19933;-45
2022/08/28 00:12:56;;;;;;;;;;;;;;;;;;4790122;29;19925;-48
2022/08/28 00:15:26;;;;;;;;;;;;;;;;;;4790320;30;19926;-46
2022/08/28 00:17:53;;;;;;;;;;;;;;;;;;4790393;30;19975;-47
2022/08/28 00:20:22;;;;;;;;;;;;;;;;;;4790167;29;19926;-43
2022/08/28 00:22:49;;;;;;;;;;;;;;;;;;4790134;29;20456;-46
2022/08/28 00:25:18;;;;;;;;;;;;;;;;;;4803600;29;19933;-45
2022/08/28 00:27:51;;;;;;;;;;;;;;;;;;4790196;30;20413;-44
2022/08/28 00:30:24;;;;;;;;;;;;;;;;;;4790271;29;20401;-47
2022/08/28 00:32:52;;;;;;;;;;;;;;;;;;4789912;29;19986;-49
2022/08/28 00:35:20;;;;;;;;;;;;;;;;;;4789986;29;20449;-43
2022/08/28 00:37:49;;;;;;;;;;;;;;;;;;4803773;29;19925;-50
2022/08/28 00:40:17;;;;;;;;;;;;;;;;;;4790177;29;19929;-43
2022/08/28 00:42:54;;;;;;;;;;;;;;;;;;4789835;29;19925;-47
2022/08/28 00:45:21;;;;;;;;;;;;;;;;;;4790003;29;19925;-46
2022/08/28 00:47:49;;;;;;;;;;;;;;;;;;4789932;30;19926;-49
2022/08/28 00:50:18;;;;;;;;;;;;;;;;;;4790007;29;19934;-44
2022/08/28 00:52:48;;;;;;;;;;;;;;;;;;4789732;29;19930;-44
2022/08/28 00:55:17;;;;;;;;;;;;;;;;;;4789452;29;19925;-43
2022/08/28 00:57:48;;;;;;;;;;;;;;;;;;4789613;29;20369;-46
2022/08/28 01:00:18;;;;;;;;;;;;;;;;;;4789738;29;19925;-47
2022/08/28 01:02:45;;;;;;;;;;;;;;;;;;4789562;29;19932;-43
2022/08/28 01:05:14;;;;;;;;;;;;;;;;;;4789399;29;19990;-44
2022/08/28 01:07:42;;;;;;;;;;;;;;;;;;4789778;29;19926;-44
2022/08/28 01:10:12;;;;;;;;;;;;;;;;;;4789345;29;20353;-46
2022/08/28 01:12:40;;;;;;;;;;;;;;;;;;4789343;29;19925;-43
2022/08/28 01:15:11;;;;;;;;;;;;;;;;;;4788149;29;20041;-45
2022/08/28 01:17:42;;;;;;;;;;;;;;;;;;4789046;29;19959;-43
2022/08/28 01:20:12;;;;;;;;;;;;;;;;;;4789174;29;19925;-43
2022/08/28 01:22:44;;;;;;;;;;;;;;;;;;4789190;29;19925;-46
2022/08/28 01:25:15;;;;;;;;;;;;;;;;;;4788969;29;19925;-43
2022/08/28 01:27:46;;;;;;;;;;;;;;;;;;4789324;29;20274;-47
2022/08/28 01:30:15;;;;;;;;;;;;;;;;;;4788891;29;20684;-42
2022/08/28 01:32:46;;;;;;;;;;;;;;;;;;4788871;30;20370;-49
2022/08/28 01:35:16;;;;;;;;;;;;;;;;;;4788925;29;19926;-51
2022/08/28 01:37:44;;;;;;;;;;;;;;;;;;4789160;29;19933;-48
2022/08/28 01:40:16;;;;;;;;;;;;;;;;;;4802670;29;19960;-48
2022/08/28 01:42:44;;;;;;;;;;;;;;;;;;4788918;29;19955;-47
2022/08/28 01:45:13;;;;;;;;;;;;;;;;;;4788801;29;19992;-43
2022/08/28 01:47:42;;;;;;;;;;;;;;;;;;4789034;29;19925;-45
2022/08/28 01:50:12;;;;;;;;;;;;;;;;;;4788975;29;20382;-43
2022/08/28 01:52:40;;;;;;;;;;;;;;;;;;4788859;29;19926;-48
2022/08/28 01:55:07;;;;;;;;;;;;;;;;;;4788362;29;19930;-48
2022/08/28 01:57:40;;;;;;;;;;;;;;;;;;4788732;30;19932;-48
2022/08/28 02:00:09;;;;;;;;;;;;;;;;;;4788665;30;19990;-43
2022/08/28 02:02:38;;;;;;;;;;;;;;;;;;4788568;29;19932;-49
2022/08/28 02:05:07;;;;;;;;;;;;;;;;;;4788322;29;19961;-50
2022/08/28 02:07:35;;;;;;;;;;;;;;;;;;4788330;29;19929;-45
2022/08/28 02:10:04;;;;;;;;;;;;;;;;;;4788506;29;20019;-45
2022/08/28 02:12:31;;;;;;;;;;;;;;;;;;4788457;29;20339;-44
2022/08/28 02:14:59;;;;;;;;;;;;;;;;;;4788321;29;19948;-46
2022/08/28 02:17:27;;;;;;;;;;;;;;;;;;4788424;30;20442;-45
2022/08/28 02:19:55;;;;;;;;;;;;;;;;;;4788538;29;19930;-45
2022/08/28 02:22:22;;;;;;;;;;;;;;;;;;4788286;29;19993;-45
2022/08/28 02:24:49;;;;;;;;;;;;;;;;;;4788168;30;20035;-46
2022/08/28 02:27:17;;;;;;;;;;;;;;;;;;4787998;29;19929;-47
2022/08/28 02:29:44;;;;;;;;;;;;;;;;;;4788206;29;20313;-45
2022/08/28 02:32:13;;;;;;;;;;;;;;;;;;4788163;29;20370;-47
2022/08/28 02:34:42;;;;;;;;;;;;;;;;;;4787542;29;20020;-45
2022/08/28 02:37:12;;;;;;;;;;;;;;;;;;4787828;29;20069;-46
2022/08/28 02:39:39;;;;;;;;;;;;;;;;;;4788173;29;19925;-48
2022/08/28 02:42:06;;;;;;;;;;;;;;;;;;4788136;29;19925;-45
2022/08/28 02:44:36;;;;;;;;;;;;;;;;;;4787898;30;20289;-44
2022/08/28 02:47:04;;;;;;;;;;;;;;;;;;4787719;29;19926;-46
2022/08/28 02:49:31;;;;;;;;;;;;;;;;;;4787738;30;20016;-50
2022/08/28 02:52:03;;;;;;;;;;;;;;;;;;4787858;29;19926;-47
2022/08/28 02:54:30;;;;;;;;;;;;;;;;;;4787787;29;19978;-44
2022/08/28 02:56:57;;;;;;;;;;;;;;;;;;4787824;30;20024;-48
2022/08/28 02:59:25;;;;;;;;;;;;;;;;;;4787685;30;19976;-46
2022/08/28 03:01:53;;;;;;;;;;;;;;;;;;4801303;29;19925;-45
2022/08/28 03:04:23;;;;;;;;;;;;;;;;;;4787531;30;19926;-46
2022/08/28 03:06:50;;;;;;;;;;;;;;;;;;4787367;29;19929;-44
2022/08/28 03:09:17;;;;;;;;;;;;;;;;;;4787549;29;20105;-46
2022/08/28 03:11:44;;;;;;;;;;;;;;;;;;4783665;29;20020;-44
2022/08/28 03:14:12;;;;;;;;;;;;;;;;;;4769165;30;19926;-48
2022/08/28 03:16:39;;;;;;;;;;;;;;;;;;4769422;30;19929;-47
2022/08/28 03:19:06;;;;;;;;;;;;;;;;;;4771652;30;20024;-51
2022/08/28 03:21:33;;;;;;;;;;;;;;;;;;4787501;30;19925;-44
2022/08/28 03:24:01;;;;;;;;;;;;;;;;;;4787157;29;19925;-45
2022/08/28 03:26:28;;;;;;;;;;;;;;;;;;4776391;30;19933;-44
2022/08/28 03:28:56;;;;;;;;;;;;;;;;;;4769456;30;19926;-47
2022/08/28 03:31:26;;;;;;;;;;;;;;;;;;4769419;30;19993;-44
2022/08/28 03:33:53;;;;;;;;;;;;;;;;;;4769443;30;20009;-48
2022/08/28 03:36:22;;;;;;;;;;;;;;;;;;4769216;30;19977;-43
2022/08/28 03:38:50;;;;;;;;;;;;;;;;;;4774452;30;19926;-47
2022/08/28 03:41:20;;;;;;;;;;;;;;;;;;4772464;30;20214;-41
2022/08/28 03:43:47;;;;;;;;;;;;;;;;;;4774848;30;20009;-47
2022/08/28 03:46:16;;;;;;;;;;;;;;;;;;4775146;30;19930;-45
2022/08/28 03:48:46;;;;;;;;;;;;;;;;;;4774317;29;19932;-49
2022/08/28 03:51:15;;;;;;;;;;;;;;;;;;4775218;29;19925;-46
2022/08/28 03:53:42;;;;;;;;;;;;;;;;;;4775292;29;19948;-49
2022/08/28 03:56:11;;;;;;;;;;;;;;;;;;4774722;30;20016;-43
2022/08/28 03:58:41;;;;;;;;;;;;;;;;;;4775067;30;19953;-47
2022/08/28 04:01:08;;;;;;;;;;;;;;;;;;4771819;29;19952;-43
2022/08/28 04:03:38;;;;;;;;;;;;;;;;;;4774961;30;20378;-46
2022/08/28 04:06:05;;;;;;;;;;;;;;;;;;4775208;30;19926;-42
2022/08/28 04:08:33;;;;;;;;;;;;;;;;;;4774650;29;19926;-47
2022/08/28 04:11:00;;;;;;;;;;;;;;;;;;4775274;29;20438;-43
2022/08/28 04:13:28;;;;;;;;;;;;;;;;;;4775162;30;19929;-47
2022/08/28 04:15:57;;;;;;;;;;;;;;;;;;4775260;30;19926;-43
2022/08/28 04:18:26;;;;;;;;;;;;;;;;;;4774272;30;20408;-50
2022/08/28 04:20:57;;;;;;;;;;;;;;;;;;4790005;29;19930;-43
2022/08/28 04:23:25;;;;;;;;;;;;;;;;;;4792520;30;19932;-45
2022/08/28 04:25:53;;;;;;;;;;;;;;;;;;4792964;29;19929;-48
2022/08/28 04:28:21;;;;;;;;;;;;;;;;;;4792899;29;20542;-46
2022/08/28 04:30:55;;;;;;;;;;;;;;;;;;4792725;29;19929;-46
2022/08/28 04:33:23;;;;;;;;;;;;;;;;;;4792372;29;19929;-50
2022/08/28 04:35:50;;;;;;;;;;;;;;;;;;4792620;29;19984;-51
2022/08/28 04:38:18;;;;;;;;;;;;;;;;;;4806414;29;20381;-49
2022/08/28 04:40:45;;;;;;;;;;;;;;;;;;4792476;30;19932;-43
2022/08/28 04:43:12;;;;;;;;;;;;;;;;;;4792779;29;20107;-47
2022/08/28 04:45:43;;;;;;;;;;;;;;;;;;4792673;29;20539;-45
2022/08/28 04:48:11;;;;;;;;;;;;;;;;;;4792420;29;20393;-46
2022/08/28 04:50:42;;;;;;;;;;;;;;;;;;4789717;29;20084;-44
2022/08/28 04:53:10;;;;;;;;;;;;;;;;;;4789864;30;20012;-51
2022/08/28 04:55:40;;;;;;;;;;;;;;;;;;4789733;29;20346;-44
2022/08/28 04:58:20;;;;;;;;;;;;;;;;;;4789526;29;20436;-44
2022/08/28 05:00:50;;;;;;;;;;;;;;;;;;4789565;29;20320;-45
2022/08/28 05:03:17;;;;;;;;;;;;;;;;;;4789514;29;19925;-52
2022/08/28 05:05:47;;;;;;;;;;;;;;;;;;4789466;29;20004;-45
2022/08/28 05:08:18;;;;;;;;;;;;;;;;;;4789680;29;19948;-50
2022/08/28 05:10:46;;;;;;;;;;;;;;;;;;4789313;30;19969;-44
2022/08/28 05:13:15;;;;;;;;;;;;;;;;;;4789266;29;19925;-45
2022/08/28 05:15:44;;;;;;;;;;;;;;;;;;4789293;30;19925;-45
2022/08/28 05:18:15;;;;;;;;;;;;;;;;;;4789226;29;19925;-49
2022/08/28 05:20:47;;;;;;;;;;;;;;;;;;4789128;29;19925;-44
2022/08/28 05:23:16;;;;;;;;;;;;;;;;;;4789032;29;19969;-44
2022/08/28 05:25:46;;;;;;;;;;;;;;;;;;4789263;29;19926;-45
2022/08/28 05:28:18;;;;;;;;;;;;;;;;;;4789029;29;19932;-43
2022/08/28 05:30:46;;;;;;;;;;;;;;;;;;4789062;30;19929;-44
2022/08/28 05:33:13;;;;;;;;;;;;;;;;;;4789049;30;19940;-44
2022/08/28 05:35:42;;;;;;;;;;;;;;;;;;4788919;29;20290;-46
2022/08/28 05:38:11;;;;;;;;;;;;;;;;;;4788802;29;20297;-44
2022/08/28 05:40:42;;;;;;;;;;;;;;;;;;4789040;30;19929;-47
2022/08/28 05:43:11;;;;;;;;;;;;;;;;;;4788882;30;19925;-47
2022/08/28 05:45:40;;;;;;;;;;;;;;;;;;4788911;29;20439;-44
2022/08/28 05:48:08;;;;;;;;;;;;;;;;;;4788758;29;19979;-44
2022/08/28 05:50:36;;;;;;;;;;;;;;;;;;4788672;29;20019;-45
2022/08/28 05:53:03;;;;;;;;;;;;;;;;;;4788763;29;19925;-45
2022/08/28 05:55:31;;;;;;;;;;;;;;;;;;4788641;30;19975;-44
2022/08/28 05:58:27;;;;;;;;;;;;;;;;;;4788782;29;19990;-45
2022/08/28 06:00:45;;;;;;;;;;;;;;;;;;4788266;29;20298;-45
2022/08/28 06:03:12;;;;;;;;;;;;;;;;;;4788238;29;19937;-46
2022/08/28 06:05:39;;;;;;;;;;;;;;;;;;4788730;29;20359;-43
2022/08/28 06:08:07;;;;;;;;;;;;;;;;;;4788480;29;20389;-45
2022/08/28 06:10:35;;;;;;;;;;;;;;;;;;4788530;29;19925;-44
2022/08/28 06:13:03;;;;;;;;;;;;;;;;;;4788314;29;19929;-43
2022/08/28 06:15:30;;;;;;;;;;;;;;;;;;4788288;30;19925;-44
2022/08/28 06:17:58;;;;;;;;;;;;;;;;;;4788653;29;20270;-45
2022/08/28 06:20:25;;;;;;;;;;;;;;;;;;4787750;29;19926;-43
2022/08/28 06:22:52;;;;;;;;;;;;;;;;;;4788422;29;20032;-46
2022/08/28 06:25:19;;;;;;;;;;;;;;;;;;4787934;30;19955;-44
2022/08/28 06:27:46;;;;;;;;;;;;;;;;;;4788169;29;19932;-45
2022/08/28 06:30:13;;;;;;;;;;;;;;;;;;4787937;29;20351;-44
2022/08/28 06:32:41;;;;;;;;;;;;;;;;;;4787827;29;19932;-43
2022/08/28 06:35:08;;;;;;;;;;;;;;;;;;4788071;30;19925;-42
2022/08/28 06:37:35;;;;;;;;;;;;;;;;;;4787719;29;19978;-44
2022/08/28 06:40:03;;;;;;;;;;;;;;;;;;4787941;30;19932;-42
2022/08/28 06:42:30;;;;;;;;;;;;;;;;;;4787878;29;19925;-45
2022/08/28 06:44:57;;;;;;;;;;;;;;;;;;4787702;29;20401;-44
2022/08/28 06:47:25;;;;;;;;;;;;;;;;;;4788071;29;19929;-42
2022/08/28 06:49:53;;;;;;;;;;;;;;;;;;4787740;30;20378;-44
2022/08/28 06:52:20;;;;;;;;;;;;;;;;;;4787820;30;20028;-43
2022/08/28 06:54:47;;;;;;;;;;;;;;;;;;4783783;30;19968;-44
2022/08/28 06:57:21;;;;;;;;;;;;;;;;;;4769275;30;20402;-44
2022/08/28 06:59:48;;;;;;;;;;;;;;;;;;4769806;30;20482;-47
2022/08/28 07:02:16;;;;;;;;;;;;;;;;;;4769620;29;20283;-45
2022/08/28 07:04:44;;;;;;;;;;;;;;;;;;4769771;30;19932;-44
2022/08/28 07:07:11;;;;;;;;;;;;;;;;;;4769620;30;19926;-45
2022/08/28 07:09:39;;;;;;;;;;;;;;;;;;4769639;29;19972;-44
2022/08/28 07:12:07;;;;;;;;;;;;;;;;;;4768622;30;20448;-46
2022/08/28 07:14:36;;;;;;;;;;;;;;;;;;4769335;30;20391;-45
2022/08/28 07:17:06;;;;;;;;;;;;;;;;;;4769355;30;20001;-44
2022/08/28 07:19:33;;;;;;;;;;;;;;;;;;4788600;29;19926;-43
2022/08/28 07:22:01;;;;;;;;;;;;;;;;;;4786302;29;19926;-44
2022/08/28 07:24:28;;;;;;;;;;;;;;;;;;4787296;29;20613;-48
2022/08/28 07:26:55;;;;;;;;;;;;;;;;;;4800768;29;19925;-44
2022/08/28 07:29:22;;;;;;;;;;;;;;;;;;4786979;29;20379;-45
2022/08/28 07:31:51;;;;;;;;;;;;;;;;;;4787289;30;20368;-44
2022/08/28 07:34:20;;;;;;;;;;;;;;;;;;4784507;29;21541;-45
2022/08/28 07:36:50;;;;;;;;;;;;;;;;;;4782917;30;20386;-44
2022/08/28 07:39:18;;;;;;;;;;;;;;;;;;4784035;29;20377;-51
2022/08/28 07:41:45;;;;;;;;;;;;;;;;;;4787285;29;19929;-46
2022/08/28 07:47:02;;;;;;;;;;;;;;;;;;4787479;29;19933;-47
2022/08/28 07:49:32;;;;;;;;;;;;;;;;;;4787120;29;20409;-43
2022/08/28 07:51:59;;;;;;;;;;;;;;;;;;4787148;29;19933;-49
2022/08/28 07:54:27;;;;;;;;;;;;;;;;;;4800364;29;19929;-43
2022/08/28 07:56:54;;;;;;;;;;;;;;;;;;4786975;29;19929;-44
2022/08/28 07:59:21;;;;;;;;;;;;;;;;;;4787102;29;20236;-47
2022/08/28 08:01:50;;;;;;;;;;;;;;;;;;4786925;29;20336;-44
2022/08/28 08:04:19;;;;;;;;;;;;;;;;;;4787025;30;19983;-44
2022/08/28 08:06:46;;;;;;;;;;;;;;;;;;4786958;29;20397;-44
2022/08/28 08:09:14;;;;;;;;;;;;;;;;;;4786602;30;20016;-45
2022/08/28 08:11:42;;;;;;;;;;;;;;;;;;4786998;29;20377;-45
2022/08/28 08:14:09;;;;;;;;;;;;;;;;;;4786955;29;20302;-43
2022/08/28 08:16:39;;;;;;;;;;;;;;;;;;4786625;29;19987;-43
2022/08/28 08:19:12;;;;;;;;;;;;;;;;;;4786419;29;20378;-46
2022/08/28 08:21:42;;;;;;;;;;;;;;;;;;4785190;29;19972;-44
2022/08/28 08:24:12;;;;;;;;;;;;;;;;;;4787176;29;20401;-44
2022/08/28 08:26:49;;;;;;;;;;;;;;;;;;4790092;29;19968;-44
2022/08/28 08:29:31;;;;;;;;;;;;;;;;;;4790030;29;19925;-43
2022/08/28 08:32:03;;;;;;;;;;;;;;;;;;4790310;29;19929;-45
2022/08/28 08:34:37;;;;;;;;;;;;;;;;;;4789892;29;20405;-46
2022/08/28 08:37:05;;;;;;;;;;;;;;;;;;4789811;29;20446;-45
2022/08/28 08:39:33;;;;;;;;;;;;;;;;;;4789751;29;19929;-45
2022/08/28 08:42:01;;;;;;;;;;;;;;;;;;4790226;30;19929;-44
2022/08/28 08:44:37;;;;;;;;;;;;;;;;;;4789783;29;20372;-44
2022/08/28 08:47:24;;;;;;;;;;;;;;;;;;4789867;29;19933;-44
2022/08/28 08:49:56;;;;;;;;;;;;;;;;;;4789308;29;19929;-46
2022/08/28 08:52:38;;;;;;;;;;;;;;;;;;4789285;29;19925;-45
2022/08/28 08:55:08;;;;;;;;;;;;;;;;;;4789559;30;20011;-45
2022/08/28 08:57:37;;;;;;;;;;;;;;;;;;4789354;29;20033;-44
2022/08/28 09:00:06;;;;;;;;;;;;;;;;;;4789462;29;19925;-45
2022/08/28 09:02:40;;;;;;;;;;;;;;;;;;4789606;29;19929;-43
2022/08/28 09:05:10;;;;;;;;;;;;;;;;;;4803362;29;19926;-46
2022/08/28 09:07:43;;;;;;;;;;;;;;;;;;4789585;29;19965;-44
2022/08/28 09:10:12;;;;;;;;;;;;;;;;;;4789357;29;19933;-43
2022/08/28 09:12:48;;;;;;;;;;;;;;;;;;4789318;29;19925;-45
2022/08/28 09:15:29;;;;;;;;;;;;;;;;;;4789349;29;19926;-43
2022/08/28 09:18:06;;;;;;;;;;;;;;;;;;4789434;29;20470;-44
2022/08/28 09:20:34;;;;;;;;;;;;;;;;;;4789051;29;19926;-44
2022/08/28 09:23:01;;;;;;;;;;;;;;;;;;4789898;29;19931;-47
2022/08/28 09:25:57;;;;;;;;;;;;;;;;;;4789159;29;19925;-44
2022/08/28 09:28:27;;;;;;;;;;;;;;;;;;4789353;29;19926;-44
2022/08/28 09:31:01;;;;;;;;;;;;;;;;;;4788923;29;19936;-46
2022/08/28 09:33:31;;;;;;;;;;;;;;;;;;4789028;30;19976;-45
2022/08/28 09:36:17;;;;;;;;;;;;;;;;;;4788095;29;19926;-46
2022/08/28 09:38:45;;;;;;;;;;;;;;;;;;4788977;29;20394;-44
2022/08/28 09:43:58;;;;;;;;;;;;;;;;;;4789014;30;19960;-45
2022/08/28 09:46:29;;;;;;;;;;;;;;;;;;4788829;29;19982;-45
2022/08/28 09:49:17;;;;;;;;;;;;;;;;;;4788968;30;19925;-45
2022/08/28 09:51:44;;;;;;;;;;;;;;;;;;4788810;29;19929;-44
2022/08/28 09:54:24;;;;;;;;;;;;;;;;;;4788730;29;20365;-43
2022/08/28 09:56:51;;;;;;;;;;;;;;;;;;4788439;29;20194;-46
2022/08/28 09:59:21;;;;;;;;;;;;;;;;;;4788414;29;19925;-47
2022/08/28 10:02:14;;;;;;;;;;;;;;;;;;4787761;30;19979;-43
2022/08/28 10:04:58;;;;;;;;;;;;;;;;;;4788180;29;20296;-44
2022/08/28 10:07:31;;;;;;;;;;;;;;;;;;4787999;29;19926;-45
2022/08/28 10:10:11;;;;;;;;;;;;;;;;;;4788539;29;20417;-47
2022/08/28 10:12:50;;;;;;;;;;;;;;;;;;4788112;29;20290;-44
2022/08/28 10:15:25;;;;;;;;;;;;;;;;;;4787839;29;19983;-44
2022/08/28 10:18:05;;;;;;;;;;;;;;;;;;4788357;29;19971;-46
2022/08/28 10:20:33;;;;;;;;;;;;;;;;;;4787982;29;20367;-44
2022/08/28 10:23:00;;;;;;;;;;;;;;;;;;4787846;30;19964;-45
2022/08/28 10:25:33;;;;;;;;;;;;;;;;;;4787865;30;19929;-44
2022/08/28 10:28:00;;;;;;;;;;;;;;;;;;4802140;29;19982;-44
2022/08/28 10:30:29;;;;;;;;;;;;;;;;;;4788069;29;20335;-44
2022/08/28 10:33:15;;;;;;;;;;;;;;;;;;4786303;29;19926;-44
2022/08/28 10:35:47;;;;;;;;;;;;;;;;;;4786804;29;19929;-44
2022/08/28 10:38:26;;;;;;;;;;;;;;;;;;4787952;30;19974;-44
2022/08/28 10:40:59;;;;;;;;;;;;;;;;;;4787750;30;19965;-44
2022/08/28 10:43:36;;;;;;;;;;;;;;;;;;4787853;29;19929;-48
2022/08/28 10:46:05;;;;;;;;;;;;;;;;;;4787395;29;20422;-42
2022/08/28 10:48:37;;;;;;;;;;;;;;;;;;4787662;29;20047;-47
2022/08/28 10:51:06;;;;;;;;;;;;;;;;;;4787651;29;20398;-44
2022/08/28 10:53:39;;;;;;;;;;;;;;;;;;4787726;30;19930;-44
2022/08/28 10:56:09;;;;;;;;;;;;;;;;;;4787405;30;19925;-44
2022/08/28 10:58:38;;;;;;;;;;;;;;;;;;4787445;29;19952;-44
2022/08/28 11:01:18;;;;;;;;;;;;;;;;;;4787388;29;19926;-45
2022/08/28 11:03:47;;;;;;;;;;;;;;;;;;4787642;29;20343;-45
2022/08/28 11:06:21;;;;;;;;;;;;;;;;;;4787602;29;20064;-44
2022/08/28 11:08:50;;;;;;;;;;;;;;;;;;4787489;29;19925;-44
2022/08/28 11:11:37;;;;;;;;;;;;;;;;;;4787387;30;20019;-44
2022/08/28 11:14:07;;;;;;;;;;;;;;;;;;4787250;29;19925;-43
2022/08/28 11:16:34;;;;;;;;;;;;;;;;;;4787335;30;19926;-46
2022/08/28 11:19:19;;;;;;;;;;;;;;;;;;4787551;30;19929;-45
2022/08/28 11:21:51;;;;;;;;;;;;;;;;;;4787107;30;19926;-48
2022/08/28 11:24:19;;;;;;;;;;;;;;;;;;4787265;29;19952;-44
2022/08/28 11:26:50;;;;;;;;;;;;;;;;;;4787059;30;19934;-44
2022/08/28 11:29:36;;;;;;;;;;;;;;;;;;4787287;29;20401;-46
2022/08/28 11:32:22;;;;;;;;;;;;;;;;;;4787084;30;20366;-45
2022/08/28 11:34:55;;;;;;;;;;;;;;;;;;4786904;29;20297;-45
2022/08/28 11:37:37;;;;;;;;;;;;;;;;;;4786489;29;20037;-44
2022/08/28 11:40:18;;;;;;;;;;;;;;;;;;4787029;29;19942;-47
2022/08/28 11:42:47;;;;;;;;;;;;;;;;;;4786869;29;19980;-46
2022/08/28 11:45:20;;;;;;;;;;;;;;;;;;4787030;29;19925;-44
2022/08/28 11:47:51;;;;;;;;;;;;;;;;;;4787252;29;19941;-44
2022/08/28 11:50:26;;;;;;;;;;;;;;;;;;4771244;29;19926;-44
2022/08/28 11:52:58;;;;;;;;;;;;;;;;;;4782808;29;19930;-45
2022/08/28 11:55:27;;;;;;;;;;;;;;;;;;4768883;30;20020;-46
2022/08/28 11:58:13;;;;;;;;;;;;;;;;;;4769004;30;19932;-44
2022/08/28 12:00:46;;;;;;;;;;;;;;;;;;4772665;30;19926;-44
2022/08/28 12:03:15;;;;;;;;;;;;;;;;;;4772447;30;20295;-44
2022/08/28 12:05:53;;;;;;;;;;;;;;;;;;4771135;30;19983;-45
2022/08/28 12:08:39;;;;;;;;;;;;;;;;;;4772573;30;19975;-44
2022/08/28 12:11:06;;;;;;;;;;;;;;;;;;4772533;30;19985;-44
2022/08/28 12:13:42;;;;;;;;;;;;;;;;;;4771301;30;19935;-44
2022/08/28 12:16:11;;;;;;;;;;;;;;;;;;4772077;30;19930;-45
2022/08/28 12:18:39;;;;;;;;;;;;;;;;;;4772347;30;19925;-46
2022/08/28 12:21:12;;;;;;;;;;;;;;;;;;4789413;30;19925;-44
2022/08/28 12:23:41;;;;;;;;;;;;;;;;;;4789719;29;20421;-44
2022/08/28 12:26:15;;;;;;;;;;;;;;;;;;4790257;29;19979;-44
2022/08/28 12:28:54;;;;;;;;;;;;;;;;;;4790189;29;19963;-44
2022/08/28 12:34:44;;;;;;;;;;;;;;;;;;4790362;29;19977;-45
2022/08/28 12:37:23;;;;;;;;;;;;;;;;;;4789430;29;20016;-44
2022/08/28 12:39:51;;;;;;;;;;;;;;;;;;4789558;29;19925;-43
2022/08/28 12:42:21;;;;;;;;;;;;;;;;;;4790019;30;19929;-46
2022/08/28 12:44:48;;;;;;;;;;;;;;;;;;4789894;29;19949;-45
2022/08/28 12:47:17;;;;;;;;;;;;;;;;;;4789679;29;19974;-45
2022/08/28 12:49:44;;;;;;;;;;;;;;;;;;4789825;29;20366;-43
2022/08/28 12:52:15;;;;;;;;;;;;;;;;;;4789524;29;19929;-43
2022/08/28 12:54:48;;;;;;;;;;;;;;;;;;4789708;29;19976;-44
2022/08/28 12:57:18;;;;;;;;;;;;;;;;;;4789477;29;20409;-43
2022/08/28 12:59:47;;;;;;;;;;;;;;;;;;4789492;29;20386;-45
2022/08/28 13:02:26;;;;;;;;;;;;;;;;;;4803348;29;19925;-47
2022/08/28 13:04:58;;;;;;;;;;;;;;;;;;4789473;29;19992;-44
2022/08/28 13:07:31;;;;;;;;;;;;;;;;;;4789672;29;20324;-44
2022/08/28 13:10:02;;;;;;;;;;;;;;;;;;4788432;29;20336;-43
2022/08/28 13:12:29;;;;;;;;;;;;;;;;;;4789180;29;19925;-43
2022/08/28 13:15:37;;;;;;;;;;;;;;;;;;4789253;29;19978;-46
2022/08/28 13:18:04;;;;;;;;;;;;;;;;;;4789148;29;19925;-46
2022/08/28 13:20:33;;;;;;;;;;;;;;;;;;4789509;29;19940;-44
2022/08/28 13:23:00;;;;;;;;;;;;;;;;;;4789242;29;19973;-44
2022/08/28 13:25:29;;;;;;;;;;;;;;;;;;4789253;30;19929;-45
2022/08/28 13:27:58;;;;;;;;;;;;;;;;;;4789233;29;19932;-44
2022/08/28 13:30:27;;;;;;;;;;;;;;;;;;4789056;29;20016;-44
2022/08/28 13:32:55;;;;;;;;;;;;;;;;;;4789021;29;20301;-44
2022/08/28 13:35:25;;;;;;;;;;;;;;;;;;4788895;29;20124;-45
2022/08/28 13:37:54;;;;;;;;;;;;;;;;;;4788104;29;19929;-43
2022/08/28 13:40:26;;;;;;;;;;;;;;;;;;4788954;29;20016;-45
2022/08/28 13:43:14;;;;;;;;;;;;;;;;;;4788909;29;19960;-44
2022/08/28 13:45:43;;;;;;;;;;;;;;;;;;4788708;29;19925;-46
2022/08/28 13:48:11;;;;;;;;;;;;;;;;;;4788770;29;19971;-50
2022/08/28 13:50:41;;;;;;;;;;;;;;;;;;4789015;29;20008;-49
2022/08/28 13:53:08;;;;;;;;;;;;;;;;;;4788667;30;19925;-48
2022/08/28 13:55:35;;;;;;;;;;;;;;;;;;4788391;30;19984;-45
2022/08/28 13:58:03;;;;;;;;;;;;;;;;;;4788396;29;19936;-44
2022/08/28 14:00:31;;;;;;;;;;;;;;;;;;4788506;29;20368;-45
2022/08/28 14:05:44;;;;;;;;;;;;;;;;;;4788769;30;19979;-42
2022/08/28 14:08:12;;;;;;;;;;;;;;;;;;4788692;29;19925;-48
2022/08/28 14:10:39;;;;;;;;;;;;;;;;;;4788328;30;19926;-42
2022/08/28 14:13:07;;;;;;;;;;;;;;;;;;4801984;29;20267;-44
2022/08/28 14:15:34;;;;;;;;;;;;;;;;;;4788117;30;19929;-42
2022/08/28 14:18:01;;;;;;;;;;;;;;;;;;4788654;29;19948;-43
2022/08/28 14:20:29;;;;;;;;;;;;;;;;;;4788451;29;20020;-43
2022/08/28 14:22:56;;;;;;;;;;;;;;;;;;4787677;29;20013;-43
2022/08/28 14:25:23;;;;;;;;;;;;;;;;;;4787947;29;20414;-45
2022/08/28 14:27:50;;;;;;;;;;;;;;;;;;4788231;30;19925;-46
2022/08/28 14:30:18;;;;;;;;;;;;;;;;;;4787960;29;19932;-51
2022/08/28 14:32:45;;;;;;;;;;;;;;;;;;4787930;29;19948;-45
2022/08/28 14:35:13;;;;;;;;;;;;;;;;;;4788065;29;19936;-48
2022/08/28 14:37:40;;;;;;;;;;;;;;;;;;4787398;29;19974;-45
2022/08/28 14:40:08;;;;;;;;;;;;;;;;;;4787976;30;20397;-43
2022/08/28 14:42:36;;;;;;;;;;;;;;;;;;4787540;29;19931;-45
2022/08/28 14:45:04;;;;;;;;;;;;;;;;;;4787763;29;20008;-43
2022/08/28 14:47:31;;;;;;;;;;;;;;;;;;4787866;29;19926;-44
2022/08/28 14:49:59;;;;;;;;;;;;;;;;;;4788049;30;20378;-50
2022/08/28 14:52:27;;;;;;;;;;;;;;;;;;4787412;29;19937;-44
2022/08/28 14:54:54;;;;;;;;;;;;;;;;;;4787783;29;20474;-44
2022/08/28 14:57:22;;;;;;;;;;;;;;;;;;4787099;29;19976;-44
2022/08/28 14:59:49;;;;;;;;;;;;;;;;;;4787583;29;19936;-44
2022/08/28 15:02:17;;;;;;;;;;;;;;;;;;4787758;29;20390;-44
2022/08/28 15:04:44;;;;;;;;;;;;;;;;;;4787432;29;20008;-43
2022/08/28 15:07:12;;;;;;;;;;;;;;;;;;4787538;29;19925;-44
2022/08/28 15:09:40;;;;;;;;;;;;;;;;;;4787512;30;19925;-46
2022/08/28 15:12:10;;;;;;;;;;;;;;;;;;4787341;30;20463;-45
2022/08/28 15:14:37;;;;;;;;;;;;;;;;;;4787321;29;19932;-43
2022/08/28 15:17:04;;;;;;;;;;;;;;;;;;4787191;29;19973;-43
2022/08/28 15:19:31;;;;;;;;;;;;;;;;;;4787365;29;20433;-44
2022/08/28 15:21:59;;;;;;;;;;;;;;;;;;4787532;30;19926;-46
2022/08/28 15:24:29;;;;;;;;;;;;;;;;;;4787058;29;19929;-43
2022/08/28 15:26:58;;;;;;;;;;;;;;;;;;4787354;30;19925;-44
2022/08/28 15:29:26;;;;;;;;;;;;;;;;;;4787010;29;19926;-45
2022/08/28 15:31:54;;;;;;;;;;;;;;;;;;4787098;30;19929;-43
2022/08/28 15:34:22;;;;;;;;;;;;;;;;;;4786335;29;19929;-43
2022/08/28 15:36:51;;;;;;;;;;;;;;;;;;4786821;29;19933;-44
2022/08/28 15:42:10;;;;;;;;;;;;;;;;;;4786420;30;19969;-43
2022/08/28 15:44:38;;;;;;;;;;;;;;;;;;4786973;29;19937;-44
2022/08/28 15:47:05;;;;;;;;;;;;;;;;;;4787111;30;19960;-44
2022/08/28 15:49:34;;;;;;;;;;;;;;;;;;4787103;29;19969;-44
2022/08/28 15:52:10;;;;;;;;;;;;;;;;;;4786901;30;20025;-45
2022/08/28 15:54:37;;;;;;;;;;;;;;;;;;4786731;29;19929;-46
2022/08/28 15:57:04;;;;;;;;;;;;;;;;;;4786768;30;19925;-43
2022/08/28 15:59:31;;;;;;;;;;;;;;;;;;4787191;29;20400;-46
2022/08/28 16:02:03;;;;;;;;;;;;;;;;;;4787034;29;20363;-43
2022/08/28 16:04:31;;;;;;;;;;;;;;;;;;4787108;29;20355;-44
2022/08/28 16:06:59;;;;;;;;;;;;;;;;;;4786844;30;19925;-47
2022/08/28 16:09:26;;;;;;;;;;;;;;;;;;4786539;29;20301;-45
2022/08/28 16:11:53;;;;;;;;;;;;;;;;;;4786971;30;20298;-43
2022/08/28 16:14:20;;;;;;;;;;;;;;;;;;4786701;30;19925;-44
2022/08/28 16:16:48;;;;;;;;;;;;;;;;;;4786971;29;19932;-43
2022/08/28 16:19:16;;;;;;;;;;;;;;;;;;4786529;29;20266;-43
2022/08/28 16:21:43;;;;;;;;;;;;;;;;;;4785794;30;19925;-46
2022/08/28 16:24:11;;;;;;;;;;;;;;;;;;4785005;29;19925;-44
2022/08/28 16:26:38;;;;;;;;;;;;;;;;;;4782368;30;19930;-43
2022/08/28 16:29:06;;;;;;;;;;;;;;;;;;4769017;30;19971;-43
2022/08/28 16:31:33;;;;;;;;;;;;;;;;;;4769177;30;20360;-44
2022/08/28 16:34:01;;;;;;;;;;;;;;;;;;4768981;30;19926;-46
2022/08/28 16:36:29;;;;;;;;;;;;;;;;;;4768698;29;19961;-44
2022/08/28 16:38:56;;;;;;;;;;;;;;;;;;4768731;29;19936;-50
2022/08/28 16:41:26;;;;;;;;;;;;;;;;;;4768608;30;19926;-43
2022/08/28 16:43:53;;;;;;;;;;;;;;;;;;4782517;30;19933;-43
2022/08/28 16:46:22;;;;;;;;;;;;;;;;;;4771554;30;20448;-43
2022/08/28 16:48:50;;;;;;;;;;;;;;;;;;4772166;30;19926;-43
2022/08/28 16:51:17;;;;;;;;;;;;;;;;;;4771719;30;19932;-46
2022/08/28 16:53:45;;;;;;;;;;;;;;;;;;4771841;30;19993;-44
2022/08/28 16:56:13;;;;;;;;;;;;;;;;;;4771249;29;19973;-44
2022/08/28 16:58:41;;;;;;;;;;;;;;;;;;4771541;30;19925;-46
2022/08/28 17:01:09;;;;;;;;;;;;;;;;;;4771903;30;19969;-46
2022/08/28 17:03:36;;;;;;;;;;;;;;;;;;4771483;30;19926;-45
2022/08/28 17:06:14;;;;;;;;;;;;;;;;;;4771637;30;19942;-46
2022/08/28 17:08:42;;;;;;;;;;;;;;;;;;4771640;30;20391;-43
2022/08/28 17:11:10;;;;;;;;;;;;;;;;;;4771725;30;19925;-44
2022/08/28 17:13:37;;;;;;;;;;;;;;;;;;4771283;30;20019;-46
2022/08/28 17:16:05;;;;;;;;;;;;;;;;;;4771709;30;19926;-43
2022/08/28 17:18:33;;;;;;;;;;;;;;;;;;4771548;29;19936;-44